sensor_id;sensor_type;location;lat;lon;timestamp;P1;durP1;ratioP1;P2;durP2;ratioP2
41255;SDS011;26989;45.524;10.938;2022-12-10T00:01:34;20.55;;;14.80;;
41255;SDS011;26989;45.524;10.938;2022-12-10T00:04:02;19.48;;;13.07;;
41255;SDS011;26989;45.524;10.938;2022-12-10T00:06:30;16.92;;;13.00;;
41255;SDS011;26989;45.524;10.938;2022-12-10T00:08:59;18.20;;;12.98;;
41255;SDS011;26989;45.524;10.938;2022-12-10T00:11:27;34.33;;;21.77;;
41255;SDS011;26989;45.524;10.938;2022-12-10T00:13:55;18.48;;;13.63;;
41255;SDS011;26989;45.524;10.938;2022-12-10T00:16:23;16.38;;;12.98;;
41255;SDS011;26989;45.524;10.938;2022-12-10T00:18:51;14.25;;;11.55;;
41255;SDS011;26989;45.524;10.938;2022-12-10T00:21:23;16.08;;;11.40;;
41255;SDS011;26989;45.524;10.938;2022-12-10T00:23:52;34.47;;;19.00;;
41255;SDS011;26989;45.524;10.938;2022-12-10T00:26:22;19.02;;;13.70;;
41255;SDS011;26989;45.524;10.938;2022-12-10T00:28:51;14.88;;;11.85;;
41255;SDS011;26989;45.524;10.938;2022-12-10T00:31:21;16.95;;;11.75;;
41255;SDS011;26989;45.524;10.938;2022-12-10T00:33:53;15.98;;;11.55;;
41255;SDS011;26989;45.524;10.938;2022-12-10T00:36:23;14.02;;;10.73;;
41255;SDS011;26989;45.524;10.938;2022-12-10T00:38:52;14.20;;;11.38;;
41255;SDS011;26989;45.524;10.938;2022-12-10T00:41:19;15.73;;;11.38;;
41255;SDS011;26989;45.524;10.938;2022-12-10T00:43:47;18.05;;;11.95;;
41255;SDS011;26989;45.524;10.938;2022-12-10T00:46:14;14.55;;;11.95;;
41255;SDS011;26989;45.524;10.938;2022-12-10T00:48:43;20.13;;;14.63;;
41255;SDS011;26989;45.524;10.938;2022-12-10T00:51:11;21.10;;;15.02;;
41255;SDS011;26989;45.524;10.938;2022-12-10T00:53:40;21.65;;;14.43;;
41255;SDS011;26989;45.524;10.938;2022-12-10T00:56:09;20.95;;;14.90;;
41255;SDS011;26989;45.524;10.938;2022-12-10T00:58:37;20.15;;;14.15;;
41255;SDS011;26989;45.524;10.938;2022-12-10T01:01:06;20.50;;;14.23;;
41255;SDS011;26989;45.524;10.938;2022-12-10T01:03:36;18.98;;;13.55;;
41255;SDS011;26989;45.524;10.938;2022-12-10T01:06:15;24.58;;;15.50;;
41255;SDS011;26989;45.524;10.938;2022-12-10T01:08:47;22.02;;;14.57;;
41255;SDS011;26989;45.524;10.938;2022-12-10T01:11:16;23.55;;;16.00;;
41255;SDS011;26989;45.524;10.938;2022-12-10T01:13:45;24.08;;;16.27;;
41255;SDS011;26989;45.524;10.938;2022-12-10T01:16:13;31.13;;;19.15;;
41255;SDS011;26989;45.524;10.938;2022-12-10T01:18:43;37.15;;;19.98;;
41255;SDS011;26989;45.524;10.938;2022-12-10T01:21:11;49.80;;;27.73;;
41255;SDS011;26989;45.524;10.938;2022-12-10T01:23:41;36.63;;;22.42;;
41255;SDS011;26989;45.524;10.938;2022-12-10T01:26:11;32.13;;;19.95;;
41255;SDS011;26989;45.524;10.938;2022-12-10T01:28:40;26.20;;;17.20;;
41255;SDS011;26989;45.524;10.938;2022-12-10T01:31:09;25.10;;;16.42;;
41255;SDS011;26989;45.524;10.938;2022-12-10T01:33:39;20.40;;;15.63;;
41255;SDS011;26989;45.524;10.938;2022-12-10T01:36:10;20.73;;;15.23;;
41255;SDS011;26989;45.524;10.938;2022-12-10T01:38:42;21.15;;;15.05;;
41255;SDS011;26989;45.524;10.938;2022-12-10T01:41:12;25.15;;;15.82;;
41255;SDS011;26989;45.524;10.938;2022-12-10T01:46:30;18.67;;;14.23;;
41255;SDS011;26989;45.524;10.938;2022-12-10T01:49:00;22.33;;;15.63;;
41255;SDS011;26989;45.524;10.938;2022-12-10T01:51:30;20.88;;;15.73;;
41255;SDS011;26989;45.524;10.938;2022-12-10T01:54:00;23.25;;;16.38;;
41255;SDS011;26989;45.524;10.938;2022-12-10T01:56:29;20.77;;;14.75;;
41255;SDS011;26989;45.524;10.938;2022-12-10T01:59:00;20.60;;;15.50;;
41255;SDS011;26989;45.524;10.938;2022-12-10T02:01:38;22.75;;;16.75;;
41255;SDS011;26989;45.524;10.938;2022-12-10T02:06:43;29.17;;;18.40;;
41255;SDS011;26989;45.524;10.938;2022-12-10T02:14:27;26.08;;;17.00;;
41255;SDS011;26989;45.524;10.938;2022-12-10T02:17:14;21.88;;;15.10;;
41255;SDS011;26989;45.524;10.938;2022-12-10T02:22:42;22.98;;;15.95;;
41255;SDS011;26989;45.524;10.938;2022-12-10T02:25:15;22.60;;;16.48;;
41255;SDS011;26989;45.524;10.938;2022-12-10T02:28:01;24.23;;;16.48;;
41255;SDS011;26989;45.524;10.938;2022-12-10T02:30:39;26.30;;;18.50;;
41255;SDS011;26989;45.524;10.938;2022-12-10T02:33:08;24.70;;;17.02;;
41255;SDS011;26989;45.524;10.938;2022-12-10T02:35:37;24.33;;;17.00;;
41255;SDS011;26989;45.524;10.938;2022-12-10T02:38:15;24.30;;;17.25;;
41255;SDS011;26989;45.524;10.938;2022-12-10T02:41:05;25.52;;;17.25;;
41255;SDS011;26989;45.524;10.938;2022-12-10T02:43:34;23.45;;;16.70;;
41255;SDS011;26989;45.524;10.938;2022-12-10T02:46:02;26.58;;;18.25;;
41255;SDS011;26989;45.524;10.938;2022-12-10T02:48:31;25.02;;;16.77;;
41255;SDS011;26989;45.524;10.938;2022-12-10T02:51:00;27.48;;;17.88;;
41255;SDS011;26989;45.524;10.938;2022-12-10T02:53:27;46.65;;;24.73;;
41255;SDS011;26989;45.524;10.938;2022-12-10T03:04:23;28.30;;;18.17;;
41255;SDS011;26989;45.524;10.938;2022-12-10T03:07:03;27.67;;;17.73;;
41255;SDS011;26989;45.524;10.938;2022-12-10T03:09:42;27.80;;;17.42;;
41255;SDS011;26989;45.524;10.938;2022-12-10T03:12:35;28.75;;;18.77;;
41255;SDS011;26989;45.524;10.938;2022-12-10T03:15:24;28.05;;;18.27;;
41255;SDS011;26989;45.524;10.938;2022-12-10T03:17:53;26.73;;;18.20;;
41255;SDS011;26989;45.524;10.938;2022-12-10T03:20:22;27.15;;;18.77;;
41255;SDS011;26989;45.524;10.938;2022-12-10T03:22:51;29.38;;;18.40;;
41255;SDS011;26989;45.524;10.938;2022-12-10T03:25:19;27.88;;;18.55;;
41255;SDS011;26989;45.524;10.938;2022-12-10T03:27:51;22.40;;;13.88;;
41255;SDS011;26989;45.524;10.938;2022-12-10T03:30:20;30.25;;;18.52;;
41255;SDS011;26989;45.524;10.938;2022-12-10T03:32:48;27.48;;;18.08;;
41255;SDS011;26989;45.524;10.938;2022-12-10T03:35:15;30.33;;;17.90;;
41255;SDS011;26989;45.524;10.938;2022-12-10T03:37:45;28.60;;;19.17;;
41255;SDS011;26989;45.524;10.938;2022-12-10T03:40:12;30.73;;;19.70;;
41255;SDS011;26989;45.524;10.938;2022-12-10T03:42:40;29.90;;;18.42;;
41255;SDS011;26989;45.524;10.938;2022-12-10T03:45:07;30.50;;;19.35;;
41255;SDS011;26989;45.524;10.938;2022-12-10T03:47:34;31.92;;;19.08;;
41255;SDS011;26989;45.524;10.938;2022-12-10T03:50:01;29.88;;;19.25;;
41255;SDS011;26989;45.524;10.938;2022-12-10T03:52:28;27.45;;;18.40;;
41255;SDS011;26989;45.524;10.938;2022-12-10T03:54:55;28.80;;;19.45;;
41255;SDS011;26989;45.524;10.938;2022-12-10T03:57:21;28.50;;;19.23;;
41255;SDS011;26989;45.524;10.938;2022-12-10T03:59:48;32.90;;;20.52;;
41255;SDS011;26989;45.524;10.938;2022-12-10T04:02:15;34.38;;;20.63;;
41255;SDS011;26989;45.524;10.938;2022-12-10T04:04:42;33.17;;;21.60;;
41255;SDS011;26989;45.524;10.938;2022-12-10T04:07:09;36.30;;;20.02;;
41255;SDS011;26989;45.524;10.938;2022-12-10T04:09:36;36.80;;;21.30;;
41255;SDS011;26989;45.524;10.938;2022-12-10T04:12:03;34.42;;;20.63;;
41255;SDS011;26989;45.524;10.938;2022-12-10T04:14:31;37.13;;;21.20;;
41255;SDS011;26989;45.524;10.938;2022-12-10T04:17:16;33.05;;;20.40;;
41255;SDS011;26989;45.524;10.938;2022-12-10T04:19:43;36.25;;;20.98;;
41255;SDS011;26989;45.524;10.938;2022-12-10T04:22:10;31.38;;;19.77;;
41255;SDS011;26989;45.524;10.938;2022-12-10T04:24:55;35.92;;;20.90;;
41255;SDS011;26989;45.524;10.938;2022-12-10T04:27:35;36.58;;;20.98;;
41255;SDS011;26989;45.524;10.938;2022-12-10T04:30:04;41.00;;;22.27;;
41255;SDS011;26989;45.524;10.938;2022-12-10T04:32:34;37.20;;;22.10;;
41255;SDS011;26989;45.524;10.938;2022-12-10T04:35:01;34.60;;;21.30;;
41255;SDS011;26989;45.524;10.938;2022-12-10T04:37:28;37.72;;;20.58;;
41255;SDS011;26989;45.524;10.938;2022-12-10T04:39:56;36.45;;;20.63;;
41255;SDS011;26989;45.524;10.938;2022-12-10T04:42:23;38.20;;;21.30;;
41255;SDS011;26989;45.524;10.938;2022-12-10T04:44:49;37.60;;;23.23;;
41255;SDS011;26989;45.524;10.938;2022-12-10T04:47:16;34.45;;;22.40;;
41255;SDS011;26989;45.524;10.938;2022-12-10T04:49:44;37.50;;;22.38;;
41255;SDS011;26989;45.524;10.938;2022-12-10T04:52:12;39.30;;;22.65;;
41255;SDS011;26989;45.524;10.938;2022-12-10T04:54:40;36.85;;;22.70;;
41255;SDS011;26989;45.524;10.938;2022-12-10T04:57:08;36.90;;;23.20;;
41255;SDS011;26989;45.524;10.938;2022-12-10T04:59:37;38.75;;;22.45;;
41255;SDS011;26989;45.524;10.938;2022-12-10T05:02:04;38.35;;;21.90;;
41255;SDS011;26989;45.524;10.938;2022-12-10T05:04:32;40.42;;;22.67;;
41255;SDS011;26989;45.524;10.938;2022-12-10T05:06:59;36.00;;;22.27;;
41255;SDS011;26989;45.524;10.938;2022-12-10T05:09:26;43.08;;;24.15;;
41255;SDS011;26989;45.524;10.938;2022-12-10T05:11:53;42.42;;;25.02;;
41255;SDS011;26989;45.524;10.938;2022-12-10T05:14:20;43.47;;;24.80;;
41255;SDS011;26989;45.524;10.938;2022-12-10T05:16:48;51.30;;;27.52;;
41255;SDS011;26989;45.524;10.938;2022-12-10T05:19:17;54.25;;;27.73;;
41255;SDS011;26989;45.524;10.938;2022-12-10T05:21:49;50.55;;;26.08;;
41255;SDS011;26989;45.524;10.938;2022-12-10T05:24:35;47.47;;;24.60;;
41255;SDS011;26989;45.524;10.938;2022-12-10T05:27:03;43.03;;;23.50;;
41255;SDS011;26989;45.524;10.938;2022-12-10T05:29:31;52.25;;;26.55;;
41255;SDS011;26989;45.524;10.938;2022-12-10T05:31:58;48.67;;;25.33;;
41255;SDS011;26989;45.524;10.938;2022-12-10T05:34:25;47.15;;;25.35;;
41255;SDS011;26989;45.524;10.938;2022-12-10T05:36:52;45.17;;;24.42;;
41255;SDS011;26989;45.524;10.938;2022-12-10T05:39:19;45.15;;;23.65;;
41255;SDS011;26989;45.524;10.938;2022-12-10T05:41:46;41.45;;;22.65;;
41255;SDS011;26989;45.524;10.938;2022-12-10T05:44:13;40.97;;;23.42;;
41255;SDS011;26989;45.524;10.938;2022-12-10T05:46:40;42.00;;;24.05;;
41255;SDS011;26989;45.524;10.938;2022-12-10T05:49:07;43.83;;;23.77;;
41255;SDS011;26989;45.524;10.938;2022-12-10T05:51:35;41.15;;;23.17;;
41255;SDS011;26989;45.524;10.938;2022-12-10T05:54:03;43.88;;;24.05;;
41255;SDS011;26989;45.524;10.938;2022-12-10T05:56:31;45.03;;;23.02;;
41255;SDS011;26989;45.524;10.938;2022-12-10T05:58:59;43.60;;;24.17;;
41255;SDS011;26989;45.524;10.938;2022-12-10T06:01:29;47.20;;;26.15;;
41255;SDS011;26989;45.524;10.938;2022-12-10T06:03:58;51.20;;;26.75;;
41255;SDS011;26989;45.524;10.938;2022-12-10T06:06:27;57.30;;;27.25;;
41255;SDS011;26989;45.524;10.938;2022-12-10T06:08:56;53.55;;;27.70;;
41255;SDS011;26989;45.524;10.938;2022-12-10T06:11:23;60.60;;;28.85;;
41255;SDS011;26989;45.524;10.938;2022-12-10T06:13:53;54.47;;;28.23;;
41255;SDS011;26989;45.524;10.938;2022-12-10T06:16:25;53.28;;;27.42;;
41255;SDS011;26989;45.524;10.938;2022-12-10T06:18:54;55.03;;;27.67;;
41255;SDS011;26989;45.524;10.938;2022-12-10T06:21:22;48.22;;;27.38;;
41255;SDS011;26989;45.524;10.938;2022-12-10T06:23:49;48.67;;;26.50;;
41255;SDS011;26989;45.524;10.938;2022-12-10T06:26:19;55.75;;;26.92;;
41255;SDS011;26989;45.524;10.938;2022-12-10T06:28:47;53.38;;;27.33;;
41255;SDS011;26989;45.524;10.938;2022-12-10T06:31:15;52.70;;;27.73;;
41255;SDS011;26989;45.524;10.938;2022-12-10T06:33:43;56.53;;;29.60;;
41255;SDS011;26989;45.524;10.938;2022-12-10T06:36:11;63.80;;;30.58;;
41255;SDS011;26989;45.524;10.938;2022-12-10T06:38:41;60.05;;;28.88;;
41255;SDS011;26989;45.524;10.938;2022-12-10T06:41:09;54.88;;;28.30;;
41255;SDS011;26989;45.524;10.938;2022-12-10T06:43:37;57.03;;;28.38;;
41255;SDS011;26989;45.524;10.938;2022-12-10T06:46:07;59.70;;;30.17;;
41255;SDS011;26989;45.524;10.938;2022-12-10T06:48:37;60.72;;;29.98;;
41255;SDS011;26989;45.524;10.938;2022-12-10T06:51:05;66.90;;;31.48;;
41255;SDS011;26989;45.524;10.938;2022-12-10T06:53:33;62.78;;;31.65;;
41255;SDS011;26989;45.524;10.938;2022-12-10T06:56:02;64.78;;;31.33;;
41255;SDS011;26989;45.524;10.938;2022-12-10T06:58:30;72.00;;;34.17;;
41255;SDS011;26989;45.524;10.938;2022-12-10T07:01:02;78.43;;;33.47;;
41255;SDS011;26989;45.524;10.938;2022-12-10T07:03:35;99.13;;;36.10;;
41255;SDS011;26989;45.524;10.938;2022-12-10T07:06:02;115.03;;;40.67;;
41255;SDS011;26989;45.524;10.938;2022-12-10T07:08:29;94.93;;;42.00;;
41255;SDS011;26989;45.524;10.938;2022-12-10T07:10:56;96.13;;;41.17;;
41255;SDS011;26989;45.524;10.938;2022-12-10T07:13:23;95.25;;;39.67;;
41255;SDS011;26989;45.524;10.938;2022-12-10T07:15:56;104.15;;;40.20;;
41255;SDS011;26989;45.524;10.938;2022-12-10T07:18:23;90.35;;;37.42;;
41255;SDS011;26989;45.524;10.938;2022-12-10T07:20:50;118.10;;;39.30;;
41255;SDS011;26989;45.524;10.938;2022-12-10T07:23:18;104.03;;;37.25;;
41255;SDS011;26989;45.524;10.938;2022-12-10T07:25:45;110.90;;;39.53;;
41255;SDS011;26989;45.524;10.938;2022-12-10T07:28:13;104.05;;;38.88;;
41255;SDS011;26989;45.524;10.938;2022-12-10T07:30:41;129.85;;;39.80;;
41255;SDS011;26989;45.524;10.938;2022-12-10T07:33:08;151.35;;;39.50;;
41255;SDS011;26989;45.524;10.938;2022-12-10T07:35:37;153.35;;;40.38;;
41255;SDS011;26989;45.524;10.938;2022-12-10T07:38:20;461.75;;;43.60;;
41255;SDS011;26989;45.524;10.938;2022-12-10T07:41:19;346.60;;;40.63;;
41255;SDS011;26989;45.524;10.938;2022-12-10T07:43:47;333.35;;;43.97;;
41255;SDS011;26989;45.524;10.938;2022-12-10T07:49:01;336.33;;;40.50;;
41255;SDS011;26989;45.524;10.938;2022-12-10T07:51:32;317.95;;;39.83;;
41255;SDS011;26989;45.524;10.938;2022-12-10T07:54:14;175.70;;;38.65;;
41255;SDS011;26989;45.524;10.938;2022-12-10T07:56:55;252.37;;;40.20;;
41255;SDS011;26989;45.524;10.938;2022-12-10T07:59:22;183.85;;;41.95;;
41255;SDS011;26989;45.524;10.938;2022-12-10T08:01:58;306.52;;;40.03;;
41255;SDS011;26989;45.524;10.938;2022-12-10T08:04:34;185.80;;;36.13;;
41255;SDS011;26989;45.524;10.938;2022-12-10T08:07:01;149.48;;;35.97;;
41255;SDS011;26989;45.524;10.938;2022-12-10T08:09:28;100.25;;;34.13;;
41255;SDS011;26989;45.524;10.938;2022-12-10T08:12:03;75.03;;;33.33;;
41255;SDS011;26989;45.524;10.938;2022-12-10T08:14:45;109.75;;;32.92;;
41255;SDS011;26989;45.524;10.938;2022-12-10T08:17:12;151.70;;;34.63;;
41255;SDS011;26989;45.524;10.938;2022-12-10T08:19:39;114.88;;;33.55;;
41255;SDS011;26989;45.524;10.938;2022-12-10T08:22:06;111.80;;;35.33;;
41255;SDS011;26989;45.524;10.938;2022-12-10T08:24:33;114.25;;;35.67;;
41255;SDS011;26989;45.524;10.938;2022-12-10T08:27:00;161.88;;;38.53;;
41255;SDS011;26989;45.524;10.938;2022-12-10T08:29:27;126.88;;;40.53;;
41255;SDS011;26989;45.524;10.938;2022-12-10T08:31:54;118.13;;;40.92;;
41255;SDS011;26989;45.524;10.938;2022-12-10T08:34:24;123.13;;;39.72;;
41255;SDS011;26989;45.524;10.938;2022-12-10T08:36:54;113.75;;;37.42;;
41255;SDS011;26989;45.524;10.938;2022-12-10T08:39:21;108.20;;;39.70;;
41255;SDS011;26989;45.524;10.938;2022-12-10T08:41:48;80.05;;;35.92;;
41255;SDS011;26989;45.524;10.938;2022-12-10T08:44:15;87.85;;;37.08;;
41255;SDS011;26989;45.524;10.938;2022-12-10T08:47:07;84.75;;;38.65;;
41255;SDS011;26989;45.524;10.938;2022-12-10T08:49:35;82.85;;;38.90;;
41255;SDS011;26989;45.524;10.938;2022-12-10T08:52:03;87.82;;;39.35;;
41255;SDS011;26989;45.524;10.938;2022-12-10T08:54:31;86.97;;;41.25;;
41255;SDS011;26989;45.524;10.938;2022-12-10T08:57:33;79.35;;;38.78;;
41255;SDS011;26989;45.524;10.938;2022-12-10T09:00:00;78.15;;;38.05;;
41255;SDS011;26989;45.524;10.938;2022-12-10T09:02:27;80.95;;;39.15;;
41255;SDS011;26989;45.524;10.938;2022-12-10T09:04:54;84.22;;;38.03;;
41255;SDS011;26989;45.524;10.938;2022-12-10T09:07:30;88.97;;;41.45;;
41255;SDS011;26989;45.524;10.938;2022-12-10T09:09:57;83.28;;;37.83;;
41255;SDS011;26989;45.524;10.938;2022-12-10T09:12:25;82.90;;;39.00;;
41255;SDS011;26989;45.524;10.938;2022-12-10T09:14:52;82.22;;;37.90;;
41255;SDS011;26989;45.524;10.938;2022-12-10T09:17:19;80.38;;;36.95;;
41255;SDS011;26989;45.524;10.938;2022-12-10T09:19:46;85.13;;;39.35;;
41255;SDS011;26989;45.524;10.938;2022-12-10T09:22:13;72.53;;;35.22;;
41255;SDS011;26989;45.524;10.938;2022-12-10T09:24:40;65.75;;;33.25;;
41255;SDS011;26989;45.524;10.938;2022-12-10T09:27:07;65.97;;;34.40;;
41255;SDS011;26989;45.524;10.938;2022-12-10T09:29:34;57.78;;;32.53;;
41255;SDS011;26989;45.524;10.938;2022-12-10T09:32:01;57.65;;;31.70;;
41255;SDS011;26989;45.524;10.938;2022-12-10T09:34:28;59.17;;;30.55;;
41255;SDS011;26989;45.524;10.938;2022-12-10T09:36:55;54.90;;;30.45;;
41255;SDS011;26989;45.524;10.938;2022-12-10T09:39:22;53.85;;;30.67;;
41255;SDS011;26989;45.524;10.938;2022-12-10T09:47:58;48.80;;;26.35;;
41255;SDS011;26989;45.524;10.938;2022-12-10T09:53:16;46.38;;;27.58;;
41255;SDS011;26989;45.524;10.938;2022-12-10T09:55:46;41.40;;;26.25;;
41255;SDS011;26989;45.524;10.938;2022-12-10T09:58:18;44.95;;;26.02;;
41255;SDS011;26989;45.524;10.938;2022-12-10T10:01:02;43.83;;;26.35;;
41255;SDS011;26989;45.524;10.938;2022-12-10T10:03:31;42.35;;;26.63;;
41255;SDS011;26989;45.524;10.938;2022-12-10T10:06:04;42.25;;;26.70;;
41255;SDS011;26989;45.524;10.938;2022-12-10T10:08:37;43.17;;;26.27;;
41255;SDS011;26989;45.524;10.938;2022-12-10T10:11:12;44.22;;;26.90;;
41255;SDS011;26989;45.524;10.938;2022-12-10T10:13:44;43.78;;;26.10;;
41255;SDS011;26989;45.524;10.938;2022-12-10T10:16:46;41.85;;;25.15;;
41255;SDS011;26989;45.524;10.938;2022-12-10T10:19:17;41.97;;;26.10;;
41255;SDS011;26989;45.524;10.938;2022-12-10T10:21:49;44.80;;;26.27;;
41255;SDS011;26989;45.524;10.938;2022-12-10T10:24:22;38.90;;;24.52;;
41255;SDS011;26989;45.524;10.938;2022-12-10T10:27:10;41.42;;;26.20;;
41255;SDS011;26989;45.524;10.938;2022-12-10T10:29:38;40.83;;;24.75;;
41255;SDS011;26989;45.524;10.938;2022-12-10T10:34:41;53.33;;;34.85;;
41255;SDS011;26989;45.524;10.938;2022-12-10T10:37:23;42.55;;;25.00;;
41255;SDS011;26989;45.524;10.938;2022-12-10T10:39:55;35.63;;;22.17;;
41255;SDS011;26989;45.524;10.938;2022-12-10T10:45:05;37.97;;;23.60;;
41255;SDS011;26989;45.524;10.938;2022-12-10T10:50:44;38.92;;;24.27;;
41255;SDS011;26989;45.524;10.938;2022-12-10T10:55:58;39.50;;;25.17;;
41255;SDS011;26989;45.524;10.938;2022-12-10T10:58:32;36.58;;;24.83;;
41255;SDS011;26989;45.524;10.938;2022-12-10T11:01:00;42.13;;;25.45;;
41255;SDS011;26989;45.524;10.938;2022-12-10T11:03:33;35.03;;;22.80;;
41255;SDS011;26989;45.524;10.938;2022-12-10T11:06:06;36.35;;;22.38;;
41255;SDS011;26989;45.524;10.938;2022-12-10T11:08:37;35.25;;;21.45;;
41255;SDS011;26989;45.524;10.938;2022-12-10T11:11:06;36.40;;;23.33;;
41255;SDS011;26989;45.524;10.938;2022-12-10T11:13:39;33.22;;;20.85;;
41255;SDS011;26989;45.524;10.938;2022-12-10T11:18:56;31.83;;;20.50;;
41255;SDS011;26989;45.524;10.938;2022-12-10T11:21:31;28.05;;;20.17;;
41255;SDS011;26989;45.524;10.938;2022-12-10T11:24:00;32.10;;;20.33;;
41255;SDS011;26989;45.524;10.938;2022-12-10T11:26:50;31.85;;;20.55;;
41255;SDS011;26989;45.524;10.938;2022-12-10T11:29:40;31.90;;;20.10;;
41255;SDS011;26989;45.524;10.938;2022-12-10T11:35:02;31.20;;;20.60;;
41255;SDS011;26989;45.524;10.938;2022-12-10T11:37:33;30.27;;;20.73;;
41255;SDS011;26989;45.524;10.938;2022-12-10T11:40:30;33.95;;;21.70;;
41255;SDS011;26989;45.524;10.938;2022-12-10T11:43:07;34.27;;;22.37;;
41255;SDS011;26989;45.524;10.938;2022-12-10T11:57:06;30.15;;;20.13;;
41255;SDS011;26989;45.524;10.938;2022-12-10T12:13:29;28.67;;;18.53;;
41255;SDS011;26989;45.524;10.938;2022-12-10T12:19:05;29.70;;;20.52;;
41255;SDS011;26989;45.524;10.938;2022-12-10T12:21:40;31.05;;;19.58;;
41255;SDS011;26989;45.524;10.938;2022-12-10T12:24:11;32.95;;;19.10;;
41255;SDS011;26989;45.524;10.938;2022-12-10T12:26:50;29.08;;;19.50;;
41255;SDS011;26989;45.524;10.938;2022-12-10T12:32:37;25.25;;;16.95;;
41255;SDS011;26989;45.524;10.938;2022-12-10T12:37:51;24.08;;;15.93;;
41255;SDS011;26989;45.524;10.938;2022-12-10T12:40:30;25.75;;;16.38;;
41255;SDS011;26989;45.524;10.938;2022-12-10T12:43:15;29.60;;;17.40;;
41255;SDS011;26989;45.524;10.938;2022-12-10T12:45:45;26.70;;;17.15;;
41255;SDS011;26989;45.524;10.938;2022-12-10T12:51:10;30.23;;;19.25;;
41255;SDS011;26989;45.524;10.938;2022-12-10T12:53:46;29.55;;;19.35;;
41255;SDS011;26989;45.524;10.938;2022-12-10T12:56:21;25.77;;;17.38;;
41255;SDS011;26989;45.524;10.938;2022-12-10T13:04:56;27.40;;;18.70;;
41255;SDS011;26989;45.524;10.938;2022-12-10T13:07:41;26.58;;;17.55;;
41255;SDS011;26989;45.524;10.938;2022-12-10T13:12:45;29.80;;;19.90;;
41255;SDS011;26989;45.524;10.938;2022-12-10T13:15:23;33.33;;;20.42;;
41255;SDS011;26989;45.524;10.938;2022-12-10T13:20:45;29.27;;;19.35;;
41255;SDS011;26989;45.524;10.938;2022-12-10T13:25:57;29.52;;;20.80;;
41255;SDS011;26989;45.524;10.938;2022-12-10T13:33:52;31.00;;;20.92;;
41255;SDS011;26989;45.524;10.938;2022-12-10T13:37:12;32.28;;;21.45;;
41255;SDS011;26989;45.524;10.938;2022-12-10T13:39:59;32.25;;;21.27;;
41255;SDS011;26989;45.524;10.938;2022-12-10T13:45:02;29.40;;;20.90;;
41255;SDS011;26989;45.524;10.938;2022-12-10T13:47:43;31.80;;;21.38;;
41255;SDS011;26989;45.524;10.938;2022-12-10T13:53:16;34.47;;;22.42;;
41255;SDS011;26989;45.524;10.938;2022-12-10T13:56:08;34.05;;;22.05;;
41255;SDS011;26989;45.524;10.938;2022-12-10T14:07:09;34.97;;;22.47;;
41255;SDS011;26989;45.524;10.938;2022-12-10T14:09:42;31.98;;;22.00;;
41255;SDS011;26989;45.524;10.938;2022-12-10T14:12:31;35.03;;;23.63;;
41255;SDS011;26989;45.524;10.938;2022-12-10T14:15:03;38.90;;;24.05;;
41255;SDS011;26989;45.524;10.938;2022-12-10T14:17:38;36.05;;;23.98;;
41255;SDS011;26989;45.524;10.938;2022-12-10T14:20:14;38.22;;;23.67;;
41255;SDS011;26989;45.524;10.938;2022-12-10T14:22:48;36.50;;;23.65;;
41255;SDS011;26989;45.524;10.938;2022-12-10T14:25:17;40.08;;;25.95;;
41255;SDS011;26989;45.524;10.938;2022-12-10T14:27:51;40.97;;;25.20;;
41255;SDS011;26989;45.524;10.938;2022-12-10T14:30:21;37.78;;;23.90;;
41255;SDS011;26989;45.524;10.938;2022-12-10T14:32:51;39.97;;;24.83;;
41255;SDS011;26989;45.524;10.938;2022-12-10T14:35:25;38.03;;;25.13;;
41255;SDS011;26989;45.524;10.938;2022-12-10T14:37:55;40.90;;;25.13;;
41255;SDS011;26989;45.524;10.938;2022-12-10T14:43:06;46.70;;;27.17;;
41255;SDS011;26989;45.524;10.938;2022-12-10T14:45:48;38.65;;;24.35;;
41255;SDS011;26989;45.524;10.938;2022-12-10T14:48:18;39.85;;;25.77;;
41255;SDS011;26989;45.524;10.938;2022-12-10T14:50:45;40.10;;;26.17;;
41255;SDS011;26989;45.524;10.938;2022-12-10T14:53:18;39.78;;;25.60;;
41255;SDS011;26989;45.524;10.938;2022-12-10T14:55:57;41.83;;;25.70;;
41255;SDS011;26989;45.524;10.938;2022-12-10T14:58:32;37.75;;;24.67;;
41255;SDS011;26989;45.524;10.938;2022-12-10T15:03:55;40.97;;;26.20;;
41255;SDS011;26989;45.524;10.938;2022-12-10T15:06:26;38.80;;;25.23;;
41255;SDS011;26989;45.524;10.938;2022-12-10T15:08:55;37.67;;;24.50;;
41255;SDS011;26989;45.524;10.938;2022-12-10T15:11:25;37.90;;;25.17;;
41255;SDS011;26989;45.524;10.938;2022-12-10T15:14:02;37.13;;;25.05;;
41255;SDS011;26989;45.524;10.938;2022-12-10T15:16:32;36.60;;;23.33;;
41255;SDS011;26989;45.524;10.938;2022-12-10T15:19:09;39.88;;;24.55;;
41255;SDS011;26989;45.524;10.938;2022-12-10T15:21:44;41.38;;;25.88;;
41255;SDS011;26989;45.524;10.938;2022-12-10T15:24:14;40.53;;;24.20;;
41255;SDS011;26989;45.524;10.938;2022-12-10T15:26:53;40.38;;;24.13;;
41255;SDS011;26989;45.524;10.938;2022-12-10T15:34:28;36.72;;;24.92;;
41255;SDS011;26989;45.524;10.938;2022-12-10T15:37:02;44.25;;;26.63;;
41255;SDS011;26989;45.524;10.938;2022-12-10T15:39:31;50.95;;;29.25;;
41255;SDS011;26989;45.524;10.938;2022-12-10T15:42:05;49.90;;;29.63;;
41255;SDS011;26989;45.524;10.938;2022-12-10T15:44:37;47.90;;;28.65;;
41255;SDS011;26989;45.524;10.938;2022-12-10T15:52:18;51.83;;;29.40;;
41255;SDS011;26989;45.524;10.938;2022-12-10T15:54:53;48.50;;;27.92;;
41255;SDS011;26989;45.524;10.938;2022-12-10T15:57:22;49.95;;;29.10;;
41255;SDS011;26989;45.524;10.938;2022-12-10T16:00:13;45.97;;;27.60;;
41255;SDS011;26989;45.524;10.938;2022-12-10T16:02:53;50.90;;;29.30;;
41255;SDS011;26989;45.524;10.938;2022-12-10T16:05:22;52.65;;;31.08;;
41255;SDS011;26989;45.524;10.938;2022-12-10T16:07:56;55.83;;;32.28;;
41255;SDS011;26989;45.524;10.938;2022-12-10T16:10:26;55.38;;;32.28;;
41255;SDS011;26989;45.524;10.938;2022-12-10T16:12:58;62.78;;;37.17;;
41255;SDS011;26989;45.524;10.938;2022-12-10T16:15:43;51.05;;;30.52;;
41255;SDS011;26989;45.524;10.938;2022-12-10T16:18:17;52.50;;;27.65;;
41255;SDS011;26989;45.524;10.938;2022-12-10T16:20:49;51.05;;;29.25;;
41255;SDS011;26989;45.524;10.938;2022-12-10T16:23:16;53.78;;;30.60;;
41255;SDS011;26989;45.524;10.938;2022-12-10T16:25:44;57.67;;;31.48;;
41255;SDS011;26989;45.524;10.938;2022-12-10T16:28:19;64.05;;;34.33;;
41255;SDS011;26989;45.524;10.938;2022-12-10T16:30:48;60.70;;;31.75;;
41255;SDS011;26989;45.524;10.938;2022-12-10T16:33:21;58.67;;;28.35;;
41255;SDS011;26989;45.524;10.938;2022-12-10T16:35:50;62.53;;;33.65;;
41255;SDS011;26989;45.524;10.938;2022-12-10T16:38:19;59.58;;;34.42;;
41255;SDS011;26989;45.524;10.938;2022-12-10T16:40:47;65.47;;;36.00;;
41255;SDS011;26989;45.524;10.938;2022-12-10T16:43:19;63.38;;;35.83;;
41255;SDS011;26989;45.524;10.938;2022-12-10T16:45:48;70.03;;;37.72;;
41255;SDS011;26989;45.524;10.938;2022-12-10T16:48:17;64.07;;;35.65;;
41255;SDS011;26989;45.524;10.938;2022-12-10T16:50:44;58.95;;;33.80;;